KDCU/DCU METAR and TAF weather

Enter ICAO airport designator
Station Type Date Time Source
KDCU METAR 2019/06/17 11:53 UTC NOAA

KDCU 171153Z AUTO 19005KT 10SM CLR 23/21 A3002 RMK AO2 SLP156 T02280206 10250 20211 53018


Station Type Date Time Source
KDCU Decoded METAR 2019/06/17 11:53 UTC NOAA

PRYOR FIELD, AL, United States (KDCU) 34-39N 086-57W 176M
Jun 17, 2019 - 07:53 AM EDT / 2019.06.17 1153 UTC
Wind: from the S (190 degrees) at 6 MPH (5 KT):0
Visibility: 10 mile(s):0
Sky conditions: clear
Temperature: 73.0 F (22.8 C)
Dew Point: 69.1 F (20.6 C)
Relative Humidity: 87%
Pressure (altimeter): 30.02 in. Hg (1016 hPa)
Pressure tendency: 0.05 inches (1.8 hPa) higher than three hours ago
ob: KDCU 171153Z AUTO 19005KT 10SM CLR 23/21 A3002 RMK AO2 SLP156 T02280206 10250 20211 53018
cycle: 12

Station Type Date Time Source
KDCU TAF UTC NOAA

Error!

Example: see airport list